createdAt,value
2023-01-28T00:02:07.516Z,102836.61
2023-01-28T00:04:38.417Z,102837.55
2023-01-28T00:07:09.382Z,102841.48
2023-01-28T00:09:37.439Z,102842.44
2023-01-28T00:12:06.962Z,102841.96
2023-01-28T00:14:52.895Z,102839.35
2023-01-28T00:17:21.341Z,102833.08
2023-01-28T00:20:50.306Z,102824.77
2023-01-28T00:24:12.194Z,102826.41
2023-01-28T00:26:43.942Z,102824.00
2023-01-28T00:29:35.072Z,102815.04
2023-01-28T00:32:44.708Z,102814.55
2023-01-28T00:36:06.941Z,102822.08
2023-01-28T00:39:34.635Z,102822.80
2023-01-28T00:43:03.443Z,102818.91
2023-01-28T00:46:32.148Z,102826.11
2023-01-28T00:49:39.724Z,102831.20
2023-01-28T00:52:36.227Z,102837.67
2023-01-28T00:55:14.796Z,102840.95
2023-01-28T00:57:43.414Z,102842.49
2023-01-28T01:00:27.316Z,102842.51
2023-01-28T01:02:55.709Z,102838.84
2023-01-28T01:05:40.841Z,102838.81
2023-01-28T01:09:02.402Z,102837.82
2023-01-28T01:12:23.675Z,102832.75
2023-01-28T01:15:44.924Z,102830.41
2023-01-28T01:19:03.724Z,102825.04
2023-01-28T01:22:32.363Z,102825.23
2023-01-28T01:25:52.289Z,102821.23
2023-01-28T01:28:45.513Z,102817.73
2023-01-28T01:32:07.102Z,102815.94
2023-01-28T01:35:24.718Z,102807.34
2023-01-28T01:37:56.787Z,102806.59
2023-01-28T01:40:25.425Z,102808.52
2023-01-28T01:42:53.673Z,102801.83
2023-01-28T01:45:35.527Z,102797.85
2023-01-28T01:48:28.447Z,102798.03
2023-01-28T01:51:22.870Z,102801.34
2023-01-28T01:54:51.757Z,102800.81
2023-01-28T01:58:20.512Z,102802.30
2023-01-28T02:01:21.796Z,102808.95
2023-01-28T02:05:06.712Z,102808.17
2023-01-28T02:08:43.035Z,102804.17
2023-01-28T02:12:01.928Z,102807.13
2023-01-28T02:15:30.770Z,102810.77
2023-01-28T02:18:59.385Z,102820.70
2023-01-28T02:22:25.371Z,102822.77
2023-01-28T02:26:03.413Z,102818.05
2023-01-28T02:29:41.239Z,102818.16
2023-01-28T02:33:06.557Z,102820.52
2023-01-28T02:36:53.672Z,102823.98
2023-01-28T02:40:19.574Z,102824.80
2023-01-28T02:42:58.366Z,102825.60
2023-01-28T02:45:52.175Z,102823.05
2023-01-28T02:49:15.451Z,102822.25
2023-01-28T02:52:41.475Z,102819.21
2023-01-28T02:56:10.318Z,102820.31
2023-01-28T02:59:56.841Z,102820.16
2023-01-28T03:03:56.488Z,102823.23
2023-01-28T03:07:09.256Z,102825.23
2023-01-28T03:10:37.997Z,102833.17
2023-01-28T03:14:05.061Z,102834.85
2023-01-28T03:17:33.640Z,102837.27
2023-01-28T03:21:01.120Z,102839.66
2023-01-28T03:24:30.988Z,102837.65
2023-01-28T03:28:13.205Z,102836.48
2023-01-28T03:31:49.087Z,102839.60
2023-01-28T03:35:16.772Z,102838.20
2023-01-28T03:38:45.976Z,102838.67
2023-01-28T03:42:05.600Z,102834.61
2023-01-28T03:45:34.322Z,102834.08
2023-01-28T03:48:47.287Z,102836.25
2023-01-28T03:52:16.171Z,102834.52
2023-01-28T03:55:44.846Z,102836.60
2023-01-28T03:59:13.586Z,102834.88
2023-01-28T04:02:42.289Z,102822.20
2023-01-28T04:06:11.408Z,102816.98
2023-01-28T04:09:40.224Z,102822.39
2023-01-28T04:13:12.500Z,102815.77
2023-01-28T04:16:22.812Z,102811.91
2023-01-28T04:19:51.489Z,102809.97
2023-01-28T04:23:20.086Z,102815.36
2023-01-28T04:26:48.847Z,102806.45
2023-01-28T04:30:00.338Z,102801.13
2023-01-28T04:33:29.109Z,102795.77
2023-01-28T04:36:56.934Z,102798.77
2023-01-28T04:40:25.814Z,102805.02
2023-01-28T04:43:53.250Z,102805.95
2023-01-28T04:47:23.131Z,102799.55
2023-01-28T04:50:44.736Z,102798.36
2023-01-28T04:54:13.450Z,102798.52
2023-01-28T04:57:42.120Z,102802.20
2023-01-28T05:01:03.775Z,102804.55
2023-01-28T05:04:29.058Z,102799.15
2023-01-28T05:07:42.731Z,102803.44
2023-01-28T05:11:12.150Z,102815.89
2023-01-28T05:14:40.912Z,102820.28
2023-01-28T05:18:09.474Z,102816.17
2023-01-28T05:21:38.143Z,102814.30
2023-01-28T05:25:07.014Z,102821.05
2023-01-28T05:28:35.890Z,102824.32
2023-01-28T05:32:03.610Z,102813.86
2023-01-28T05:35:32.343Z,102812.04
2023-01-28T05:39:01.570Z,102815.98
2023-01-28T05:42:30.385Z,102821.50
2023-01-28T05:45:59.280Z,102823.02
2023-01-28T05:48:41.456Z,102818.41
2023-01-28T05:51:09.752Z,102822.70
2023-01-28T05:53:38.052Z,102820.64
2023-01-28T05:56:07.276Z,102819.45
2023-01-28T05:58:38.929Z,102820.33
2023-01-28T06:01:06.973Z,102820.21
2023-01-28T06:03:38.228Z,102817.70
2023-01-28T06:06:06.569Z,102823.80
2023-01-28T06:08:34.999Z,102817.75
2023-01-28T06:11:08.118Z,102816.02
2023-01-28T06:13:37.829Z,102816.50
2023-01-28T06:16:06.413Z,102820.64
2023-01-28T06:19:35.275Z,102823.20
2023-01-28T06:22:52.691Z,102821.05
2023-01-28T06:26:04.157Z,102818.73
2023-01-28T06:29:32.767Z,102823.58
2023-01-28T06:32:45.475Z,102827.40
2023-01-28T06:36:06.743Z,102816.61
2023-01-28T06:39:28.236Z,102813.34
2023-01-28T06:42:56.853Z,102823.96
2023-01-28T06:46:25.546Z,102827.81
2023-01-28T06:49:54.620Z,102827.25
2023-01-28T06:53:23.317Z,102826.69
2023-01-28T06:56:51.972Z,102835.81
2023-01-28T07:00:20.693Z,102828.96
2023-01-28T07:03:49.310Z,102827.71
2023-01-28T07:07:18.047Z,102826.67
2023-01-28T07:10:46.793Z,102827.35
2023-01-28T07:14:08.896Z,102835.39
2023-01-28T07:17:01.431Z,102834.38
2023-01-28T07:20:30.248Z,102836.48
2023-01-28T07:23:56.828Z,102833.05
2023-01-28T07:27:26.296Z,102832.73
2023-01-28T07:30:39.277Z,102825.84
2023-01-28T07:34:08.560Z,102826.70
2023-01-28T07:37:37.152Z,102829.29
2023-01-28T07:40:29.502Z,102831.15
2023-01-28T07:43:01.106Z,102824.24
2023-01-28T07:46:01.488Z,102824.65
2023-01-28T07:48:32.501Z,102829.73
2023-01-28T07:51:01.677Z,102829.61
2023-01-28T07:53:29.971Z,102830.66
2023-01-28T07:56:12.198Z,102833.11
2023-01-28T07:58:40.339Z,102833.45
2023-01-28T08:01:08.562Z,102831.86
2023-01-28T08:03:40.031Z,102830.79
2023-01-28T08:06:48.380Z,102836.67
2023-01-28T08:09:42.094Z,102833.34
2023-01-28T08:12:50.955Z,102834.51
2023-01-28T08:15:22.234Z,102842.95
2023-01-28T08:18:03.636Z,102852.67
2023-01-28T08:21:05.398Z,102854.77
2023-01-28T08:24:05.539Z,102865.02
2023-01-28T08:27:34.275Z,102865.05
2023-01-28T08:30:51.916Z,102871.11
2023-01-28T08:33:23.355Z,102873.31
2023-01-28T08:35:51.657Z,102872.08
2023-01-28T08:38:27.637Z,102867.84
2023-01-28T08:41:00.009Z,102872.30
2023-01-28T08:44:08.877Z,102876.27
2023-01-28T08:46:46.009Z,102878.83
2023-01-28T08:49:36.926Z,102883.10
2023-01-28T08:52:05.383Z,102894.66
2023-01-28T08:54:36.755Z,102899.48
2023-01-28T08:57:05.116Z,102906.73
2023-01-28T08:59:36.525Z,102905.83
2023-01-28T09:02:22.041Z,102903.31
2023-01-28T09:04:57.421Z,102901.89
2023-01-28T09:07:28.336Z,102901.85
2023-01-28T09:10:06.973Z,102894.92
2023-01-28T09:12:36.225Z,102887.56
2023-01-28T09:15:05.755Z,102882.96
2023-01-28T09:17:37.063Z,102878.86
2023-01-28T09:20:06.881Z,102877.21
2023-01-28T09:23:35.863Z,102870.86
2023-01-28T09:26:13.423Z,102865.48
2023-01-28T09:29:06.245Z,102863.77
2023-01-28T09:31:37.358Z,102860.18
2023-01-28T09:34:13.502Z,102862.70
2023-01-28T09:36:44.513Z,102864.59
2023-01-28T09:39:12.919Z,102864.35
2023-01-28T09:42:13.811Z,102858.90
2023-01-28T09:44:56.731Z,102848.71
2023-01-28T09:47:49.585Z,102839.47
2023-01-28T09:50:28.110Z,102832.27
2023-01-28T09:53:05.302Z,102834.67
2023-01-28T09:55:39.084Z,102831.42
2023-01-28T09:58:15.185Z,102836.65
2023-01-28T10:00:59.283Z,102843.40
2023-01-28T10:03:28.262Z,102843.98
2023-01-28T10:06:08.345Z,102844.55
2023-01-28T10:09:08.834Z,102839.33
2023-01-28T10:12:14.311Z,102836.42
2023-01-28T10:15:16.531Z,102835.59
2023-01-28T10:17:47.975Z,102827.56
2023-01-28T10:20:26.405Z,102819.95
2023-01-28T10:23:05.148Z,102811.33
2023-01-28T10:25:59.144Z,102804.33
2023-01-28T10:28:29.602Z,102794.44
2023-01-28T10:31:07.480Z,102797.11
2023-01-28T10:33:41.735Z,102798.30
2023-01-28T10:36:18.426Z,102796.19
2023-01-28T10:39:08.071Z,102801.46
2023-01-28T10:42:26.765Z,102790.84
2023-01-28T10:45:55.563Z,102789.36
2023-01-28T10:48:56.670Z,102791.31
2023-01-28T10:51:40.011Z,102786.62
2023-01-28T10:54:34.697Z,102787.10
2023-01-28T10:57:05.612Z,102793.81
2023-01-28T10:59:41.882Z,102789.16
2023-01-28T11:02:32.614Z,102794.98
2023-01-28T11:05:23.085Z,102798.32
2023-01-28T11:07:51.468Z,102798.21
2023-01-28T11:10:40.529Z,102795.95
2023-01-28T11:13:24.431Z,102795.50
2023-01-28T11:16:45.367Z,102796.64
2023-01-28T11:19:13.533Z,102803.05
2023-01-28T11:22:42.276Z,102810.30
2023-01-28T11:26:02.323Z,102815.20
2023-01-28T11:29:30.938Z,102815.25
2023-01-28T11:32:01.330Z,102809.45
2023-01-28T11:35:04.407Z,102805.34
2023-01-28T11:38:33.156Z,102810.41
2023-01-28T11:41:36.003Z,102811.29
2023-01-28T11:44:50.422Z,102818.46
2023-01-28T11:48:17.360Z,102812.36
2023-01-28T11:50:51.515Z,102808.48
2023-01-28T11:53:45.961Z,102804.39
2023-01-28T11:57:23.870Z,102805.50
2023-01-28T12:00:50.900Z,102806.62
2023-01-28T12:04:07.068Z,102809.55
2023-01-28T12:07:23.230Z,102811.88
2023-01-28T12:10:32.876Z,102799.25
2023-01-28T12:13:45.625Z,102797.16
2023-01-28T12:16:49.899Z,102801.36
2023-01-28T12:19:54.004Z,102798.89
2023-01-28T12:22:46.533Z,102796.80
2023-01-28T12:26:12.876Z,102799.72
2023-01-28T12:29:38.852Z,102799.84
2023-01-28T12:32:28.993Z,102794.52
2023-01-28T12:35:12.561Z,102787.07
2023-01-28T12:38:23.067Z,102784.90
2023-01-28T12:41:28.528Z,102786.33
2023-01-28T12:44:04.303Z,102783.20
2023-01-28T12:47:21.681Z,102773.46
2023-01-28T12:50:58.733Z,102764.64
2023-01-28T12:53:38.427Z,102769.11
2023-01-28T12:56:15.789Z,102768.23
2023-01-28T12:58:53.685Z,102768.82
2023-01-28T13:01:29.667Z,102757.41
2023-01-28T13:04:07.144Z,102750.38
2023-01-28T13:07:05.471Z,102753.88
2023-01-28T13:09:39.485Z,102750.18
2023-01-28T13:12:13.036Z,102745.92
2023-01-28T13:14:42.611Z,102741.63
2023-01-28T13:17:29.297Z,102744.73
2023-01-28T13:20:13.442Z,102750.40
2023-01-28T13:22:50.288Z,102746.13
2023-01-28T13:25:41.925Z,102749.80
2023-01-28T13:29:10.872Z,102750.91
2023-01-28T13:32:11.061Z,102747.88
2023-01-28T13:35:06.154Z,102742.14
2023-01-28T13:37:48.646Z,102736.02
2023-01-28T13:40:17.012Z,102730.25
2023-01-28T13:43:05.425Z,102731.11
2023-01-28T13:45:36.778Z,102736.04
2023-01-28T13:48:51.149Z,102734.20
2023-01-28T13:51:45.698Z,102733.60
2023-01-28T13:54:25.273Z,102736.59
2023-01-28T13:57:41.177Z,102732.36
2023-01-28T14:01:02.273Z,102728.48
2023-01-28T14:04:07.579Z,102723.21
2023-01-28T14:07:29.152Z,102720.77
2023-01-28T14:10:28.533Z,102726.73
2023-01-28T14:14:01.666Z,102732.15
2023-01-28T14:17:10.268Z,102726.36
2023-01-28T14:20:01.045Z,102735.73
2023-01-28T14:22:30.790Z,102738.31
2023-01-28T14:25:32.953Z,102741.30
2023-01-28T14:28:30.747Z,102746.27
2023-01-28T14:31:12.208Z,102745.63
2023-01-28T14:34:11.113Z,102752.55
2023-01-28T14:36:45.708Z,102759.63
2023-01-28T14:39:51.298Z,102761.16
2023-01-28T14:42:27.255Z,102767.36
2023-01-28T14:45:11.190Z,102768.88
2023-01-28T14:48:17.947Z,102770.73
2023-01-28T14:51:15.530Z,102779.65
2023-01-28T14:53:53.049Z,102781.55
2023-01-28T14:56:56.547Z,102777.69
2023-01-28T14:59:48.468Z,102775.45
2023-01-28T15:02:25.499Z,102775.05
2023-01-28T15:05:24.851Z,102768.45
2023-01-28T15:08:22.153Z,102763.30
2023-01-28T15:10:53.784Z,102768.33
2023-01-28T15:13:36.451Z,102764.91
2023-01-28T15:16:17.027Z,102758.24
2023-01-28T15:18:57.240Z,102757.30
2023-01-28T15:22:26.111Z,102753.41
2023-01-28T15:25:54.857Z,102744.71
2023-01-28T15:29:10.026Z,102743.36
2023-01-28T15:32:18.745Z,102741.14
2023-01-28T15:35:41.669Z,102743.77
2023-01-28T15:38:12.810Z,102742.38
2023-01-28T15:40:48.419Z,102740.44
2023-01-28T15:43:20.857Z,102736.24
2023-01-28T15:45:52.516Z,102738.00
2023-01-28T15:48:26.784Z,102741.55
2023-01-28T15:51:37.562Z,102740.54
2023-01-28T15:55:06.258Z,102743.46
2023-01-28T15:58:13.248Z,102744.37
2023-01-28T16:01:21.904Z,102742.56
2023-01-28T16:05:05.590Z,102742.58
2023-01-28T16:07:44.016Z,102745.90
2023-01-28T16:10:25.021Z,102744.23
2023-01-28T16:12:58.679Z,102748.09
2023-01-28T16:15:27.000Z,102749.67
2023-01-28T16:17:57.572Z,102751.48
2023-01-28T16:20:50.944Z,102750.85
2023-01-28T16:24:04.609Z,102753.80
2023-01-28T16:27:14.840Z,102756.88
2023-01-28T16:30:03.655Z,102756.39
2023-01-28T16:33:01.196Z,102756.33
2023-01-28T16:36:30.304Z,102763.36
2023-01-28T16:39:33.213Z,102761.29
2023-01-28T16:43:01.898Z,102758.51
2023-01-28T16:46:30.545Z,102765.48
2023-01-28T16:49:59.356Z,102760.95
2023-01-28T16:52:28.044Z,102761.54
2023-01-28T16:54:56.330Z,102768.05
2023-01-28T16:57:27.242Z,102766.55
2023-01-28T16:59:56.058Z,102771.73
2023-01-28T17:02:24.425Z,102770.76
2023-01-28T17:04:52.590Z,102773.80
2023-01-28T17:08:21.315Z,102774.36
2023-01-28T17:11:53.155Z,102778.34
2023-01-28T17:15:13.122Z,102783.69
2023-01-28T17:17:53.018Z,102786.13
2023-01-28T17:20:52.220Z,102785.20
2023-01-28T17:23:24.344Z,102782.92
2023-01-28T17:25:56.027Z,102776.29
2023-01-28T17:28:24.272Z,102776.52
2023-01-28T17:30:55.473Z,102778.33
2023-01-28T17:33:23.841Z,102777.80
2023-01-28T17:35:52.186Z,102775.52
2023-01-28T17:38:20.716Z,102778.85
2023-01-28T17:40:49.220Z,102780.95
2023-01-28T17:43:17.511Z,102778.21
2023-01-28T17:45:45.960Z,102780.33
2023-01-28T17:48:14.409Z,102777.55
2023-01-28T17:50:42.741Z,102778.06
2023-01-28T17:53:13.886Z,102778.92
2023-01-28T17:55:42.185Z,102777.11
2023-01-28T17:58:10.520Z,102772.02
2023-01-28T18:00:38.939Z,102768.09
2023-01-28T18:03:07.279Z,102766.89
2023-01-28T18:05:35.501Z,102767.92
2023-01-28T18:08:04.716Z,102767.59
2023-01-28T18:10:32.786Z,102766.73
2023-01-28T18:13:01.141Z,102763.03
2023-01-28T18:15:49.415Z,102762.63
2023-01-28T18:18:17.977Z,102762.77
2023-01-28T18:20:58.523Z,102756.91
2023-01-28T18:23:30.001Z,102756.63
2023-01-28T18:25:59.737Z,102755.62
2023-01-28T18:28:39.017Z,102759.05
2023-01-28T18:31:08.574Z,102762.16
2023-01-28T18:33:36.715Z,102764.98
2023-01-28T18:36:09.245Z,102764.29
2023-01-28T18:38:57.509Z,102768.77
2023-01-28T18:41:44.576Z,102768.59
2023-01-28T18:44:18.241Z,102767.86
2023-01-28T18:47:15.430Z,102769.61
2023-01-28T18:50:09.916Z,102771.35
2023-01-28T18:52:38.488Z,102768.92
2023-01-28T18:55:16.040Z,102764.39
2023-01-28T18:57:44.345Z,102760.58
2023-01-28T19:00:12.930Z,102764.61
2023-01-28T19:02:43.799Z,102760.63
2023-01-28T19:05:12.673Z,102759.06
2023-01-28T19:07:40.848Z,102758.20
2023-01-28T19:10:09.284Z,102761.79
2023-01-28T19:12:40.691Z,102766.90
2023-01-28T19:15:21.127Z,102761.92
2023-01-28T19:17:49.614Z,102761.81
2023-01-28T19:20:18.662Z,102761.46
2023-01-28T19:22:49.703Z,102761.31
2023-01-28T19:25:18.326Z,102762.36
2023-01-28T19:27:46.899Z,102762.33
2023-01-28T19:30:17.526Z,102762.13
2023-01-28T19:32:49.480Z,102761.59
2023-01-28T19:35:26.142Z,102759.20
2023-01-28T19:37:55.439Z,102757.31
2023-01-28T19:40:24.177Z,102756.43
2023-01-28T19:42:55.407Z,102753.31
2023-01-28T19:45:23.868Z,102750.34
2023-01-28T19:47:52.024Z,102747.08
2023-01-28T19:50:20.252Z,102750.25
2023-01-28T19:52:48.317Z,102757.39
2023-01-28T19:55:44.448Z,102763.87
2023-01-28T19:58:13.576Z,102775.70
2023-01-28T20:00:42.214Z,102780.52
2023-01-28T20:03:12.903Z,102792.17
2023-01-28T20:05:41.173Z,102794.61
2023-01-28T20:08:10.729Z,102790.52
2023-01-28T20:10:38.850Z,102790.80
2023-01-28T20:13:13.314Z,102788.31
2023-01-28T20:15:41.847Z,102790.57
2023-01-28T20:18:09.918Z,102794.95
2023-01-28T20:20:59.167Z,102793.20
2023-01-28T20:23:27.673Z,102791.98
2023-01-28T20:26:11.142Z,102785.36
2023-01-28T20:28:42.001Z,102787.80
2023-01-28T20:31:42.421Z,102787.83
2023-01-28T20:34:16.277Z,102783.98
2023-01-28T20:37:10.215Z,102780.15
2023-01-28T20:39:49.561Z,102778.94
2023-01-28T20:42:47.546Z,102777.71
2023-01-28T20:45:16.081Z,102784.89
2023-01-28T20:47:47.119Z,102781.75
2023-01-28T20:50:51.289Z,102775.77
2023-01-28T20:53:24.709Z,102775.38
2023-01-28T20:56:24.953Z,102771.77
2023-01-28T20:59:29.752Z,102772.33
2023-01-28T21:02:32.207Z,102773.34
2023-01-28T21:05:00.624Z,102766.48
2023-01-28T21:07:28.748Z,102763.54
2023-01-28T21:10:02.319Z,102762.66
2023-01-28T21:12:34.816Z,102763.00
2023-01-28T21:15:05.709Z,102761.08
2023-01-28T21:17:34.037Z,102761.81
2023-01-28T21:20:42.695Z,102757.33
2023-01-28T21:24:12.900Z,102756.06
2023-01-28T21:26:42.435Z,102759.25
2023-01-28T21:29:23.489Z,102759.17
2023-01-28T21:32:16.207Z,102760.14
2023-01-28T21:34:44.347Z,102764.91
2023-01-28T21:37:35.930Z,102767.83
2023-01-28T21:40:15.628Z,102771.09
2023-01-28T21:43:06.206Z,102771.05
2023-01-28T21:45:50.075Z,102773.14
2023-01-28T21:48:36.977Z,102776.67
2023-01-28T21:51:58.298Z,102772.34
2023-01-28T21:55:19.626Z,102769.39
2023-01-28T21:58:10.863Z,102756.17
2023-01-28T22:01:39.616Z,102742.20
2023-01-28T22:04:07.953Z,102739.70
2023-01-28T22:06:36.215Z,102740.00
2023-01-28T22:09:04.573Z,102733.32
2023-01-28T22:11:35.331Z,102733.48
2023-01-28T22:14:08.668Z,102736.27
2023-01-28T22:16:37.554Z,102740.63
2023-01-28T22:19:26.305Z,102742.17
2023-01-28T22:21:57.912Z,102747.77
2023-01-28T22:24:32.419Z,102753.88
2023-01-28T22:27:23.948Z,102753.21
2023-01-28T22:29:53.940Z,102741.91
2023-01-28T22:32:22.224Z,102737.55
2023-01-28T22:35:04.817Z,102736.85
2023-01-28T22:37:35.708Z,102729.39
2023-01-28T22:40:04.174Z,102717.02
2023-01-28T22:42:33.657Z,102711.81
2023-01-28T22:45:24.832Z,102710.66
2023-01-28T22:47:53.016Z,102710.85
2023-01-28T22:50:21.364Z,102710.90
2023-01-28T22:53:31.419Z,102711.23
2023-01-28T22:56:28.368Z,102710.95
2023-01-28T22:59:01.941Z,102712.09
2023-01-28T23:01:46.020Z,102709.95
2023-01-28T23:04:14.071Z,102710.98
2023-01-28T23:06:50.980Z,102709.58
2023-01-28T23:09:19.226Z,102706.23
2023-01-28T23:11:49.755Z,102711.84
2023-01-28T23:14:36.869Z,102712.73
2023-01-28T23:17:40.362Z,102709.54
2023-01-28T23:20:30.489Z,102704.59
2023-01-28T23:23:43.480Z,102703.52
2023-01-28T23:26:16.990Z,102705.45
2023-01-28T23:28:44.887Z,102702.55
2023-01-28T23:32:07.272Z,102701.20
2023-01-28T23:34:44.388Z,102697.55
2023-01-28T23:37:16.325Z,102689.90
2023-01-28T23:39:53.477Z,102684.33
2023-01-28T23:42:31.818Z,102684.34
2023-01-28T23:44:59.932Z,102686.27
2023-01-28T23:47:30.800Z,102687.33
2023-01-28T23:50:02.167Z,102681.45
2023-01-28T23:53:30.807Z,102683.89
2023-01-28T23:56:59.478Z,102686.98
